createdAt,value
2018-09-05T00:00:23.079Z,143.63
2018-09-05T00:02:51.476Z,179.07
2018-09-05T00:05:19.850Z,176.20
2018-09-05T00:07:48.277Z,179.97
2018-09-05T00:10:16.715Z,133.57
2018-09-05T00:12:45.059Z,165.27
2018-09-05T00:15:13.581Z,154.83
2018-09-05T00:17:42.016Z,156.43
2018-09-05T00:20:10.665Z,169.43
2018-09-05T00:22:38.937Z,142.77
2018-09-05T00:25:07.404Z,157.40
2018-09-05T00:27:35.849Z,151.83
2018-09-05T00:30:04.813Z,149.40
2018-09-05T00:32:33.183Z,147.40
2018-09-05T00:35:01.755Z,152.17
2018-09-05T00:37:30.353Z,130.20
2018-09-05T00:39:58.792Z,146.13
2018-09-05T00:42:27.268Z,150.37
2018-09-05T00:44:56.008Z,137.43
2018-09-05T00:47:24.588Z,130.87
2018-09-05T00:49:57.626Z,112.13
2018-09-05T00:52:26.030Z,104.87
2018-09-05T00:54:54.843Z,117.77
2018-09-05T00:57:23.159Z,116.37
2018-09-05T00:59:51.758Z,143.23
2018-09-05T01:02:20.323Z,149.20
2018-09-05T01:04:49.050Z,143.37
2018-09-05T01:07:25.134Z,147.00
2018-09-05T01:09:53.554Z,120.67
2018-09-05T01:12:22.695Z,148.17
2018-09-05T01:14:52.303Z,153.93
2018-09-05T01:17:21.227Z,148.87
2018-09-05T01:19:49.635Z,148.07
2018-09-05T01:22:17.954Z,141.67
2018-09-05T01:24:46.710Z,146.73
2018-09-05T01:29:51.957Z,143.37
2018-09-05T01:32:20.575Z,142.57
2018-09-05T01:34:49.186Z,144.20
2018-09-05T01:37:17.783Z,145.17
2018-09-05T01:39:46.370Z,133.87
2018-09-05T01:42:14.980Z,146.70
2018-09-05T01:44:43.753Z,140.60
2018-09-05T01:47:12.629Z,128.63
2018-09-05T01:49:41.128Z,126.07
2018-09-05T01:52:09.683Z,115.53
2018-09-05T01:54:38.375Z,127.70
2018-09-05T01:57:06.816Z,117.13
2018-09-05T01:59:35.141Z,129.17
2018-09-05T02:02:04.442Z,139.03
2018-09-05T02:04:33.106Z,146.13
2018-09-05T02:07:01.470Z,142.70
2018-09-05T02:09:30.001Z,149.53
2018-09-05T02:11:58.361Z,159.07
2018-09-05T02:14:26.743Z,117.50
2018-09-05T02:16:55.116Z,115.13
2018-09-05T02:19:23.468Z,108.07
2018-09-05T02:21:51.837Z,137.30
2018-09-05T02:24:20.205Z,144.80
2018-09-05T02:26:48.761Z,137.27
2018-09-05T02:29:17.107Z,136.93
2018-09-05T02:31:45.693Z,135.63
2018-09-05T02:34:14.107Z,120.53
2018-09-05T02:36:42.562Z,133.67
2018-09-05T02:39:11.574Z,128.20
2018-09-05T02:41:40.012Z,134.17
2018-09-05T02:44:13.879Z,114.40
2018-09-05T02:46:42.198Z,113.40
2018-09-05T02:49:10.670Z,121.17
2018-09-05T02:51:39.047Z,124.27
2018-09-05T02:54:07.647Z,121.87
2018-09-05T02:56:36.015Z,103.43
2018-09-05T02:59:04.539Z,128.40
2018-09-05T03:01:32.905Z,121.17
2018-09-05T03:04:01.360Z,103.17
2018-09-05T03:06:29.690Z,115.57
2018-09-05T03:08:58.247Z,118.17
2018-09-05T03:11:26.607Z,114.50
2018-09-05T03:13:54.943Z,114.70
2018-09-05T03:16:23.285Z,118.60
2018-09-05T03:18:52.083Z,97.97
2018-09-05T03:21:20.668Z,108.00
2018-09-05T03:23:49.000Z,96.80
2018-09-05T03:26:17.415Z,107.33
2018-09-05T03:28:45.830Z,95.33
2018-09-05T03:31:14.439Z,115.20
2018-09-05T03:33:42.912Z,114.07
2018-09-05T03:36:11.257Z,118.83
2018-09-05T03:38:39.612Z,125.37
2018-09-05T03:41:07.996Z,103.63
2018-09-05T03:43:36.502Z,119.63
2018-09-05T03:46:05.395Z,122.23
2018-09-05T03:48:33.809Z,105.67
2018-09-05T03:51:02.280Z,128.17
2018-09-05T03:53:30.789Z,103.67
2018-09-05T03:55:59.857Z,115.60
2018-09-05T03:58:28.183Z,142.17
2018-09-05T04:00:56.742Z,100.87
2018-09-05T04:03:25.103Z,91.30
2018-09-05T04:05:53.439Z,134.33
2018-09-05T04:08:21.617Z,114.80
2018-09-05T04:10:49.985Z,138.77
2018-09-05T04:13:18.381Z,143.63
2018-09-05T04:15:46.817Z,127.70
2018-09-05T04:18:15.438Z,121.47
2018-09-05T04:20:43.840Z,100.43
2018-09-05T04:23:12.421Z,112.80
2018-09-05T04:25:40.788Z,103.27
2018-09-05T04:28:09.121Z,127.47
2018-09-05T04:30:37.498Z,117.70
2018-09-05T04:33:05.949Z,139.37
2018-09-05T04:35:34.283Z,103.50
2018-09-05T04:38:02.314Z,134.87
2018-09-05T04:40:30.673Z,129.00
2018-09-05T04:42:59.126Z,139.87
2018-09-05T04:45:27.670Z,132.80
2018-09-05T04:47:56.148Z,110.37
2018-09-05T04:50:24.585Z,105.57
2018-09-05T04:52:53.035Z,98.77
2018-09-05T04:55:21.380Z,116.23
2018-09-05T04:57:50.005Z,118.53
2018-09-05T05:00:18.634Z,125.43
2018-09-05T05:02:47.059Z,107.27
2018-09-05T05:05:15.636Z,120.77
2018-09-05T05:07:44.082Z,109.73
2018-09-05T05:10:12.567Z,93.33
2018-09-05T05:12:41.088Z,93.43
2018-09-05T05:15:09.589Z,97.20
2018-09-05T05:17:38.167Z,97.10
2018-09-05T05:20:06.606Z,92.13
2018-09-05T05:22:35.149Z,87.63
2018-09-05T05:25:03.597Z,88.70
2018-09-05T05:27:31.950Z,84.13
2018-09-05T05:30:00.316Z,81.80
2018-09-05T05:32:28.713Z,79.53
2018-09-05T05:34:57.257Z,75.43
2018-09-05T05:37:25.655Z,78.63
2018-09-05T05:39:54.239Z,75.33
2018-09-05T05:42:22.325Z,77.83
2018-09-05T05:44:50.784Z,80.43
2018-09-05T05:47:19.185Z,75.77
2018-09-05T05:49:47.518Z,75.17
2018-09-05T05:52:16.050Z,80.07
2018-09-05T05:54:44.423Z,75.93
2018-09-05T05:57:19.562Z,75.13
2018-09-05T05:59:48.156Z,71.57
2018-09-05T06:02:16.601Z,69.80
2018-09-05T06:04:45.023Z,72.07
2018-09-05T06:07:13.639Z,73.63
2018-09-05T06:09:42.199Z,71.70
2018-09-05T06:12:10.332Z,75.37
2018-09-05T06:14:38.580Z,77.93
2018-09-05T06:17:07.003Z,68.63
2018-09-05T06:19:35.381Z,67.50
2018-09-05T06:22:04.027Z,62.57
2018-09-05T06:24:32.920Z,68.57
2018-09-05T06:27:01.372Z,63.47
2018-09-05T06:29:29.979Z,63.60
2018-09-05T06:31:58.689Z,67.27
2018-09-05T06:34:27.264Z,70.57
2018-09-05T06:36:55.626Z,64.10
2018-09-05T06:39:24.035Z,62.70
2018-09-05T06:41:53.013Z,60.67
2018-09-05T06:44:21.415Z,59.83
2018-09-05T06:46:49.840Z,59.93
2018-09-05T06:49:18.349Z,63.70
2018-09-05T06:51:46.709Z,62.23
2018-09-05T06:54:15.216Z,74.53
2018-09-05T06:56:43.742Z,81.80
2018-09-05T06:59:12.121Z,80.97
2018-09-05T07:01:40.676Z,86.13
2018-09-05T07:04:09.163Z,80.43
2018-09-05T07:06:37.697Z,74.30
2018-09-05T07:09:09.714Z,82.00
2018-09-05T07:11:38.434Z,82.47
2018-09-05T07:14:07.227Z,86.07
2018-09-05T07:16:35.984Z,88.57
2018-09-05T07:19:05.643Z,88.57
2018-09-05T07:21:34.410Z,82.20
2018-09-05T07:24:02.398Z,72.33
2018-09-05T07:26:30.745Z,70.10
2018-09-05T07:28:59.163Z,68.67
2018-09-05T07:31:27.541Z,66.00
2018-09-05T07:33:56.132Z,71.37
2018-09-05T07:36:24.727Z,69.93
2018-09-05T07:38:53.090Z,64.73
2018-09-05T07:41:21.757Z,57.53
2018-09-05T07:43:50.409Z,48.53
2018-09-05T07:46:18.901Z,54.50
2018-09-05T07:48:47.357Z,50.00
2018-09-05T07:51:15.765Z,50.40
2018-09-05T07:53:43.784Z,42.37
2018-09-05T07:56:12.224Z,43.57
2018-09-05T07:58:40.665Z,43.93
2018-09-05T08:01:09.873Z,42.30
2018-09-05T08:03:38.225Z,38.10
2018-09-05T08:06:06.631Z,38.83
2018-09-05T08:08:35.087Z,38.10
2018-09-05T08:11:03.484Z,41.67
2018-09-05T08:13:32.114Z,37.53
2018-09-05T08:16:00.536Z,34.83
2018-09-05T08:18:28.944Z,34.43
2018-09-05T08:20:57.387Z,32.93
2018-09-05T08:23:25.485Z,28.47
2018-09-05T08:25:53.506Z,27.60
2018-09-05T08:28:22.063Z,27.00
2018-09-05T08:30:50.693Z,27.23
2018-09-05T08:33:19.172Z,29.30
2018-09-05T08:35:47.819Z,28.70
2018-09-05T08:38:16.032Z,31.07
2018-09-05T08:40:44.431Z,34.30
2018-09-05T08:43:12.805Z,35.33
2018-09-05T08:45:41.380Z,38.63
2018-09-05T08:48:09.688Z,35.77
2018-09-05T08:50:37.997Z,32.50
2018-09-05T08:53:06.055Z,33.20
2018-09-05T08:55:34.522Z,28.53
2018-09-05T08:58:02.895Z,25.37
2018-09-05T09:00:31.355Z,25.37
2018-09-05T09:02:59.829Z,23.97
2018-09-05T09:05:28.341Z,24.30
2018-09-05T09:07:56.699Z,24.53
2018-09-05T09:10:25.089Z,23.97
2018-09-05T09:12:53.572Z,23.30
2018-09-05T09:15:21.946Z,21.10
2018-09-05T09:17:50.300Z,16.73
2018-09-05T09:20:18.680Z,17.23
2018-09-05T09:22:47.352Z,14.27
2018-09-05T09:25:15.943Z,14.13
2018-09-05T09:27:44.084Z,13.97
2018-09-05T09:30:12.573Z,14.33
2018-09-05T09:32:41.000Z,11.80
2018-09-05T09:35:09.596Z,13.10
2018-09-05T09:37:37.956Z,12.30
2018-09-05T09:40:06.302Z,13.90
2018-09-05T09:42:34.639Z,14.63
2018-09-05T09:45:03.237Z,15.30
2018-09-05T09:47:31.587Z,14.70
2018-09-05T09:50:00.276Z,16.23
2018-09-05T09:52:28.704Z,17.60
2018-09-05T09:54:57.036Z,18.57
2018-09-05T09:57:25.324Z,18.23
2018-09-05T09:59:53.758Z,16.10
2018-09-05T10:02:28.218Z,18.03
2018-09-05T10:05:02.259Z,18.30
2018-09-05T10:07:36.271Z,17.83
2018-09-05T10:10:10.428Z,18.03
2018-09-05T10:12:56.230Z,20.83
2018-09-05T10:15:30.363Z,20.20
2018-09-05T10:18:04.347Z,19.03
2018-09-05T10:20:32.805Z,20.33
2018-09-05T10:23:01.163Z,20.07
2018-09-05T10:25:29.594Z,19.43
2018-09-05T10:27:57.729Z,20.63
2018-09-05T10:30:26.093Z,20.80
2018-09-05T10:32:54.492Z,20.27
2018-09-05T10:35:22.882Z,22.80
2018-09-05T10:37:51.629Z,19.70
2018-09-05T10:40:20.267Z,20.47
2018-09-05T10:42:48.856Z,20.67
2018-09-05T10:45:17.539Z,19.03
2018-09-05T10:47:45.991Z,21.03
2018-09-05T10:50:14.518Z,20.97
2018-09-05T10:52:42.931Z,20.00
2018-09-05T10:55:11.472Z,21.50
2018-09-05T10:57:40.164Z,21.90
2018-09-05T11:00:08.640Z,20.53
2018-09-05T11:02:37.051Z,20.83
2018-09-05T11:05:05.708Z,21.40
2018-09-05T11:07:33.950Z,20.13
2018-09-05T11:10:02.558Z,19.40
2018-09-05T11:12:30.978Z,19.13
2018-09-05T11:14:59.772Z,18.70
2018-09-05T11:17:28.155Z,18.60
2018-09-05T11:19:56.563Z,18.53
2018-09-05T11:22:25.053Z,18.17
2018-09-05T11:24:53.559Z,19.13
2018-09-05T11:27:21.960Z,18.47
2018-09-05T11:29:50.558Z,19.17
2018-09-05T11:32:19.205Z,20.47
2018-09-05T11:34:47.635Z,20.37
2018-09-05T11:37:15.977Z,19.80
2018-09-05T11:39:44.058Z,19.80
2018-09-05T11:42:12.133Z,19.10
2018-09-05T11:44:40.775Z,18.47
2018-09-05T11:47:09.362Z,18.90
2018-09-05T11:49:37.892Z,18.90
2018-09-05T11:52:06.505Z,19.20
2018-09-05T11:54:35.115Z,19.80
2018-09-05T11:57:03.491Z,17.37
2018-09-05T11:59:31.953Z,17.83
2018-09-05T12:02:00.446Z,18.03
2018-09-05T12:04:28.835Z,20.20
2018-09-05T12:06:57.354Z,20.27
2018-09-05T12:09:25.457Z,19.60
2018-09-05T12:11:54.490Z,20.83
2018-09-05T12:14:22.831Z,19.17
2018-09-05T12:16:51.346Z,18.60
2018-09-05T12:19:19.983Z,19.20
2018-09-05T12:21:48.440Z,17.57
2018-09-05T12:24:16.866Z,17.93
2018-09-05T12:26:45.620Z,18.57
2018-09-05T12:29:14.251Z,17.63
2018-09-05T12:31:44.270Z,18.90
2018-09-05T12:34:13.967Z,17.87
2018-09-05T12:36:42.343Z,20.07
2018-09-05T12:39:13.379Z,20.37
2018-09-05T12:41:42.377Z,19.70
2018-09-05T12:44:11.358Z,20.00
2018-09-05T12:46:39.814Z,18.93
2018-09-05T12:49:08.348Z,20.50
2018-09-05T12:51:36.905Z,20.00
2018-09-05T12:54:06.084Z,19.17
2018-09-05T12:56:34.536Z,19.80
2018-09-05T12:59:02.928Z,21.57
2018-09-05T13:01:31.351Z,22.50
2018-09-05T13:03:59.932Z,21.63
2018-09-05T13:06:28.838Z,21.53
2018-09-05T13:08:57.481Z,22.33
2018-09-05T13:11:25.997Z,21.53
2018-09-05T13:13:54.548Z,20.80
2018-09-05T13:16:23.155Z,22.83
2018-09-05T13:18:51.614Z,22.10
2018-09-05T13:21:20.317Z,22.27
2018-09-05T13:23:48.895Z,24.77
2018-09-05T13:26:17.589Z,22.00
2018-09-05T13:28:46.420Z,23.77
2018-09-05T13:31:15.021Z,21.10
2018-09-05T13:33:44.011Z,22.60
2018-09-05T13:36:13.308Z,21.70
2018-09-05T13:38:45.661Z,22.97
2018-09-05T13:41:14.084Z,22.33
2018-09-05T13:43:42.482Z,22.43
2018-09-05T13:46:11.040Z,23.37
2018-09-05T13:48:39.690Z,23.33
2018-09-05T13:51:08.171Z,21.23
2018-09-05T13:53:36.641Z,21.77
2018-09-05T13:56:05.081Z,23.00
2018-09-05T13:58:33.487Z,21.23
2018-09-05T14:01:02.127Z,23.00
2018-09-05T14:03:30.775Z,18.90
2018-09-05T14:05:59.977Z,21.00
2018-09-05T14:08:28.290Z,25.27
2018-09-05T14:10:57.619Z,21.47
2018-09-05T14:13:26.377Z,19.07
2018-09-05T14:15:54.941Z,21.17
2018-09-05T14:18:24.558Z,20.97
2018-09-05T14:20:53.104Z,20.33
2018-09-05T14:23:21.667Z,20.07
2018-09-05T14:25:50.362Z,18.90
2018-09-05T14:28:19.040Z,19.27
2018-09-05T14:30:47.431Z,18.47
2018-09-05T14:33:16.137Z,18.60
2018-09-05T14:35:44.512Z,18.20
2018-09-05T14:38:13.123Z,16.33
2018-09-05T14:40:41.483Z,18.40
2018-09-05T14:43:09.941Z,18.00
2018-09-05T14:45:38.355Z,17.33
2018-09-05T14:48:06.834Z,16.67
2018-09-05T14:50:35.291Z,16.40
2018-09-05T14:53:03.688Z,15.77
2018-09-05T14:55:32.960Z,17.20
2018-09-05T14:58:01.486Z,19.60
2018-09-05T15:00:30.261Z,17.67
2018-09-05T15:02:58.761Z,18.20
2018-09-05T15:05:27.177Z,17.70
2018-09-05T15:07:55.835Z,17.73
2018-09-05T15:10:24.382Z,17.53
2018-09-05T15:12:53.002Z,19.50
2018-09-05T15:15:21.528Z,18.80
2018-09-05T15:17:49.984Z,18.50
2018-09-05T15:20:18.353Z,19.03
2018-09-05T15:22:46.773Z,18.77
2018-09-05T15:25:15.535Z,19.70
2018-09-05T15:27:43.949Z,18.37
2018-09-05T15:30:12.509Z,18.83
2018-09-05T15:32:41.098Z,20.43
2018-09-05T15:35:09.776Z,20.63
2018-09-05T15:37:38.466Z,19.30
2018-09-05T15:40:07.085Z,20.07
2018-09-05T15:42:35.645Z,21.97
2018-09-05T15:45:04.471Z,20.50
2018-09-05T15:47:33.198Z,22.90
2018-09-05T15:50:01.723Z,20.43
2018-09-05T15:52:30.182Z,23.07
2018-09-05T15:54:58.422Z,21.57
2018-09-05T15:57:27.115Z,24.23
2018-09-05T15:59:55.699Z,23.87
2018-09-05T16:02:24.307Z,22.17
2018-09-05T16:04:52.635Z,21.80
2018-09-05T16:07:21.192Z,21.53
2018-09-05T16:09:49.765Z,24.00
2018-09-05T16:12:18.374Z,24.37
2018-09-05T16:14:46.795Z,24.53
2018-09-05T16:17:15.133Z,22.90
2018-09-05T16:19:43.879Z,22.83
2018-09-05T16:22:12.344Z,23.80
2018-09-05T16:24:41.142Z,25.60
2018-09-05T16:27:09.956Z,24.90
2018-09-05T16:29:39.544Z,24.57
2018-09-05T16:32:09.062Z,23.80
2018-09-05T16:34:37.620Z,22.20
2018-09-05T16:37:06.344Z,22.00
2018-09-05T16:39:34.899Z,23.93
2018-09-05T16:42:03.310Z,23.13
2018-09-05T16:44:31.744Z,22.07
2018-09-05T16:47:00.495Z,21.37
2018-09-05T16:49:29.111Z,20.00
2018-09-05T16:51:57.678Z,21.77
2018-09-05T16:54:26.620Z,21.10
2018-09-05T16:56:55.120Z,20.17
2018-09-05T16:59:23.730Z,20.83
2018-09-05T17:01:52.321Z,21.50
2018-09-05T17:04:20.964Z,21.27
2018-09-05T17:06:49.462Z,21.90
2018-09-05T17:09:17.968Z,21.30
2018-09-05T17:11:46.678Z,21.33
2018-09-05T17:14:15.222Z,22.07
2018-09-05T17:16:43.740Z,21.90
2018-09-05T17:19:12.278Z,22.13
2018-09-05T17:21:41.434Z,21.27
2018-09-05T17:24:09.958Z,23.10
2018-09-05T17:26:38.287Z,21.73
2018-09-05T17:29:07.505Z,23.83
2018-09-05T17:31:36.072Z,24.57
2018-09-05T17:34:05.228Z,26.27
2018-09-05T17:36:33.986Z,26.20
2018-09-05T17:39:02.989Z,25.80
2018-09-05T17:41:31.443Z,26.47
2018-09-05T17:44:00.075Z,25.87
2018-09-05T17:46:28.624Z,27.17
2018-09-05T17:48:57.216Z,28.00
2018-09-05T17:51:25.925Z,27.37
2018-09-05T17:53:54.629Z,26.17
2018-09-05T17:56:23.625Z,27.47
2018-09-05T17:58:52.608Z,25.60
2018-09-05T18:01:22.807Z,24.57
2018-09-05T18:03:51.410Z,25.70
2018-09-05T18:06:20.394Z,25.77
2018-09-05T18:08:48.901Z,25.20
2018-09-05T18:11:17.473Z,24.27
2018-09-05T18:13:45.962Z,25.73
2018-09-05T18:16:14.491Z,23.97
2018-09-05T18:18:43.127Z,25.47
2018-09-05T18:21:12.445Z,25.60
2018-09-05T18:23:41.001Z,25.70
2018-09-05T18:26:09.432Z,24.83
2018-09-05T18:28:37.896Z,25.97
2018-09-05T18:31:06.547Z,24.00
2018-09-05T18:33:34.972Z,23.87
2018-09-05T18:36:03.521Z,23.77
2018-09-05T18:38:31.950Z,22.10
2018-09-05T18:41:00.457Z,24.33
2018-09-05T18:43:29.140Z,24.07
2018-09-05T18:45:57.874Z,24.90
2018-09-05T18:48:26.490Z,23.97
2018-09-05T18:50:55.046Z,23.03
2018-09-05T18:53:23.754Z,23.60
2018-09-05T18:55:52.414Z,24.47
2018-09-05T18:58:20.969Z,25.23
2018-09-05T19:00:49.452Z,22.13
2018-09-05T19:03:18.057Z,22.10
2018-09-05T19:05:46.813Z,23.73
2018-09-05T19:08:15.807Z,23.03
2018-09-05T19:10:44.730Z,22.70
2018-09-05T19:13:13.362Z,22.17
2018-09-05T19:15:41.866Z,22.33
2018-09-05T19:18:10.447Z,21.40
2018-09-05T19:20:38.869Z,21.43
2018-09-05T19:23:07.381Z,20.80
2018-09-05T19:25:35.831Z,22.60
2018-09-05T19:28:05.658Z,24.10
2018-09-05T19:30:34.215Z,21.37
2018-09-05T19:33:02.923Z,22.97
2018-09-05T19:35:31.386Z,23.23
2018-09-05T19:37:59.787Z,22.93
2018-09-05T19:40:28.018Z,24.10
2018-09-05T19:42:56.619Z,25.83
2018-09-05T19:45:25.099Z,24.90
2018-09-05T19:47:53.730Z,24.80
2018-09-05T19:50:22.331Z,25.40
2018-09-05T19:52:50.694Z,27.13
2018-09-05T19:55:19.074Z,25.50
2018-09-05T19:57:47.627Z,26.80
2018-09-05T20:00:16.729Z,28.07
2018-09-05T20:02:45.563Z,32.23
2018-09-05T20:05:14.025Z,28.73
2018-09-05T20:07:42.514Z,28.60
2018-09-05T20:10:10.670Z,30.50
2018-09-05T20:12:38.862Z,28.40
2018-09-05T20:15:07.332Z,30.50
2018-09-05T20:17:36.063Z,31.83
2018-09-05T20:20:05.059Z,30.00
2018-09-05T20:22:33.572Z,32.20
2018-09-05T20:25:02.239Z,31.93
2018-09-05T20:27:30.751Z,31.27
2018-09-05T20:29:59.219Z,32.37
2018-09-05T20:32:27.629Z,32.23
2018-09-05T20:34:56.187Z,32.43
2018-09-05T20:37:24.773Z,32.63
2018-09-05T20:39:53.466Z,32.60
2018-09-05T20:42:22.060Z,31.40
2018-09-05T20:44:50.754Z,35.77
2018-09-05T20:47:19.178Z,35.00
2018-09-05T20:49:47.634Z,35.60
2018-09-05T20:52:16.201Z,36.73
2018-09-05T20:54:44.696Z,39.30
2018-09-05T20:57:13.152Z,43.53
2018-09-05T20:59:41.544Z,42.30
2018-09-05T21:02:10.018Z,48.53
2018-09-05T21:04:38.491Z,68.40
2018-09-05T21:07:06.971Z,79.10
2018-09-05T21:09:35.814Z,81.03
2018-09-05T21:12:04.152Z,116.77
2018-09-05T21:14:32.594Z,113.57
2018-09-05T21:17:01.284Z,102.27
2018-09-05T21:19:29.743Z,104.53
2018-09-05T21:21:58.175Z,107.67
2018-09-05T21:24:26.647Z,141.03
2018-09-05T21:26:55.129Z,95.80
2018-09-05T21:29:23.572Z,113.13
2018-09-05T21:31:52.056Z,111.17
2018-09-05T21:34:20.684Z,127.57
2018-09-05T21:36:49.132Z,118.10
2018-09-05T21:39:17.600Z,130.80
2018-09-05T21:41:45.694Z,119.20
2018-09-05T21:44:14.399Z,137.20
2018-09-05T21:46:42.920Z,157.73
2018-09-05T21:49:11.376Z,129.67
2018-09-05T21:51:40.098Z,130.53
2018-09-05T21:54:08.594Z,169.33
2018-09-05T21:56:36.997Z,188.83
2018-09-05T21:59:05.585Z,162.03
2018-09-05T22:01:34.083Z,192.33
2018-09-05T22:04:02.613Z,194.10
2018-09-05T22:06:31.031Z,200.77
2018-09-05T22:08:59.795Z,180.07
2018-09-05T22:11:28.583Z,185.73
2018-09-05T22:13:57.272Z,187.83
2018-09-05T22:16:25.744Z,154.00
2018-09-05T22:18:54.212Z,152.23
2018-09-05T22:21:23.241Z,148.70
2018-09-05T22:23:58.742Z,121.60
2018-09-05T22:26:27.447Z,118.77
2018-09-05T22:28:55.910Z,121.43
2018-09-05T22:31:24.302Z,145.73
2018-09-05T22:33:52.839Z,147.97
2018-09-05T22:36:21.327Z,168.93
2018-09-05T22:38:49.895Z,149.30
2018-09-05T22:41:18.307Z,137.60
2018-09-05T22:44:04.082Z,131.97
2018-09-05T22:46:49.628Z,135.63
2018-09-05T22:52:13.589Z,126.60
2018-09-05T22:55:35.865Z,114.47
2018-09-05T22:59:24.219Z,118.47
2018-09-05T23:02:43.686Z,112.10
2018-09-05T23:07:44.698Z,103.33
2018-09-05T23:10:30.352Z,91.37
2018-09-05T23:13:16.118Z,110.60
2018-09-05T23:16:02.045Z,92.43
2018-09-05T23:20:47.385Z,76.63
2018-09-05T23:24:01.248Z,78.80
2018-09-05T23:26:29.553Z,80.33
2018-09-05T23:28:58.071Z,78.27
2018-09-05T23:31:26.620Z,68.13
2018-09-05T23:33:55.200Z,84.07
2018-09-05T23:36:24.002Z,75.63
2018-09-05T23:38:52.429Z,83.97
2018-09-05T23:41:20.941Z,75.47
2018-09-05T23:43:49.598Z,74.43
2018-09-05T23:46:18.028Z,70.40
2018-09-05T23:48:46.434Z,71.80
2018-09-05T23:51:14.810Z,84.50
2018-09-05T23:53:42.954Z,85.60
2018-09-05T23:56:11.057Z,81.83
2018-09-05T23:58:39.671Z,91.73
